默认 日期 大小 文件数 浏览量 最新下载 xml
ambient磁力链接相关资源由用户搜索指令自动获取,结果来源于网络,本站不存储任何资料,亦不承担任何责任,请于24小时内删除,搜索到4789个磁力,显示前4000条数据,用时4ms。
    {"Divorosso-Fantasy_Lounge-RSV19119-WEB-2019-LEV": {"15-divorosso-k_wild-11c61f.mp3": 5285487, "01-divorosso-lorenxo-a89d97.mp3": 5664785, "11-divorosso-cossong-8dd85c.mp3": 6505927, "06-divorosso-age_bang-a30da1.mp3": 5516409, "09-divorosso-anatemix- ...
创建时间: 2019-05-18 21:23:08 大小:267.9 MB 文件数量:43 热度:4 最近下载:2021-06-17 16:25:58
    {"Cover.jpg": 376696, "005. Kaxamalka - Suwawa.mp3": 14400812, "014. Blue Wave - Closet.mp3": 14333939, "007. Lafoliedamour - You.mp3": 14204373, "019. Arrojas - Occidente.mp3": 15561696, "011. Rey Salinero - Enigma.mp3": 13460410, "020. Zadar - Just ...
创建时间: 2019-05-19 01:52:27 大小:344.76 MB 文件数量:26 热度:4 最近下载:2021-06-17 16:25:58
    {"Jhgl-Roots-WEB-2018-KLIN": {"00-jhgl-roots-web-2018.jpg": 55528, "00-jhgl-roots-web-2018.m3u": 96, "00-jhgl-roots-web-2018.nfo": 17427, "02-jhgl-roots_(original_mix)-7f7845d4-klin.mp3": 8556672, "01-jhgl-melilla_(original_mix)-6ae2dc56-klin.mp3": ...
创建时间: 2019-05-19 19:01:11 大小:821.25 MB 文件数量:117 热度:4 最近下载:2021-06-17 16:25:58
    ... , "07. Scid Fredi - Wow (Selected Ambient Mix).mp3": 21329365, "16. Andre ...
创建时间: 2019-05-19 20:26:24 大小:281.33 MB 文件数量:21 热度:4 最近下载:2021-06-17 16:25:58
    {"Dj_Queto-Arabesque-WEB-2019-KLIN": {"00-dj_queto-arabesque-web-2019.jpg": 55855, "00-dj_queto-arabesque-web-2019.m3u": 109, "00-dj_queto-arabesque-web-2019.nfo": 17424, "02-dj_queto-arabesque_(soire_remix)-065ff93a-klin.mp3": 17117312, "01-dj_queto- ...
创建时间: 2019-05-19 20:48:04 大小:1.13 GB 文件数量:106 热度:4 最近下载:2025-03-13 14:51:02
    {"tpd071large.jpg": 160523, "[tpdm071] 05.12.25 Country.mp3": 137092492}
创建时间: 2019-05-20 01:32:46 大小:130.89 MB 文件数量:2 热度:8 最近下载:2025-04-30 19:25:02
    {"folder.jpg": 29087, "Sonogram - Substrates Ambient Works 1995-1999.cue": 2308, " ... -1999.log": 3665, "Sonogram - Substrates Ambient Works 1995-1999.flac": 250180959 ... , "Sonogram - Substrates Ambient Works 1995-1999.accurip": 1172}
创建时间: 2019-05-20 16:14:25 大小:238.63 MB 文件数量:5 热度:3 最近下载:2021-06-17 16:25:58
    ... - Top 50 Best Chill, Triphop, Ambient, Dontempo Songs of All Time ...
创建时间: 2019-05-20 18:01:38 大小:406.3 MB 文件数量:52 热度:8 最近下载:2025-05-06 16:33:02
    {"2013 David Parsons - Stupa [gterma037]": {"covers": {"booklet.pdf": 27880941, "booklet_Page_01.png": 9878746, "booklet_Page_02.png": 9509343, "booklet_Page_03.png": 9880056, "booklet_Page_04.png": 9672704, "booklet_Page_05.png": 10926111, " ...
创建时间: 2019-05-20 18:15:05 大小:6.74 GB 文件数量:221 热度:3 最近下载:2021-06-17 16:25:58
    {"Bodaishin-Tara-ITR128-WEB-2019-AFO": {"00-bodaishin-tara-(itr128)-web-2019.jpg": 153867, "00-bodaishin-tara-(itr128)-web-2019.m3u": 148, "00-bodaishin-tara-(itr128)-web-2019.nfo": 6588, "01-bodaishin-tara_(original_mix)-12e5b328.mp3": 16646272, "03- ...
创建时间: 2019-05-21 06:36:53 大小:424.53 MB 文件数量:40 热度:3 最近下载:2021-06-17 16:25:58
    ... .mp3": 25476992, "Various - Top 40 Ambient Tracks.m3u": 3431, "02. Aes ...
创建时间: 2019-05-21 06:58:04 大小:798.17 MB 文件数量:42 热度:3 最近下载:2021-06-17 16:25:58
    ... , "Malstrîm 2.wav": 2605416, "Ambient Piano.wav": 2605416, "Electric Water ... ": 2419324, "Distant Time.wav": 2419324, "Ambient Piano.wav": 2419324, "Master Section ... ": 3387004, "Morning Rize.wav": 3387004, "ambient flute.wav": 3387004, "Master Section ...
创建时间: 2019-05-22 06:44:02 大小:186.62 MB 文件数量:67 热度:3 最近下载:2021-06-17 16:25:58
    {"03_My_Love [www.Divxatope.com].mp3": 22570957, "01_Afterlife [www.Divxatope.com].mp3": 10223397, "04_Dark_Wall [www.Divxatope.com].mp3": 10223397, "05_I_Am_Dead [www.Divxatope.com].mp3": 25778793, "07_Heaven_&_Hell [www.Divxatope.com].mp3": 10908850, " ...
创建时间: 2019-05-22 19:46:27 大小:118.93 MB 文件数量:8 热度:6 最近下载:2025-03-20 21:11:02
    {"nfo.nfo": 762, "Zero-G.Ambient.Volume.2.AKAI.part1.rar": 500000000, "Zero-G.Ambient.Volume.2.AKAI.part2.rar": 100564060}
创建时间: 2019-05-23 00:26:44 大小:572.74 MB 文件数量:3 热度:3 最近下载:2021-06-17 16:25:58
    {"folder.jpg": 20222, "08 - ATM.mp3": 6765936, "09 - Eclipse.mp3": 9420550, "07 - Vultures.mp3": 6814059, "01 - Prop Drop.mp3": 8627728, "02 - Let It Lie.mp3": 9358845, "06 - D.Y.N.T.S..mp3": 9085853, "10 - Free Tonight.mp3": 8413317, "04 - Circles Roaming ...
创建时间: 2019-05-24 01:04:38 大小:86.55 MB 文件数量:11 热度:7 最近下载:2025-10-02 06:47:04
    {"Arcadia-Toy-SINGLE-WEB-2019-KLIN": {"00-arcadia-toy-single-web-2019.jpg": 83154, "00-arcadia-toy-single-web-2019.m3u": 48, "00-arcadia-toy-single-web-2019.nfo": 17353, "01-arcadia-toy_(original_mix)-3c89ceb8-klin.mp3": 7764096}, "Wormplace-Endless_Dawn- ...
创建时间: 2019-05-24 13:54:29 大小:266.02 MB 文件数量:43 热度:3 最近下载:2021-06-17 16:25:58
    {"Deadcrow-Adrift-WEB-2019-KLIN": {"00-deadcrow-adrift-web-2019.jpg": 54929, "00-deadcrow-adrift-web-2019.m3u": 101, "00-deadcrow-adrift-web-2019.nfo": 17429, "01-deadcrow-adrift_(radio_mix)-e8a5713c-klin.mp3": 9328768, "02-deadcrow-adrift_(original_mix)- ...
创建时间: 2019-05-24 19:49:26 大小:21.92 MB 文件数量:5 热度:3 最近下载:2021-06-17 16:25:58
    {"Kelly_Moran-Love_Birds_Night_Birds_Devil-Birds-WAP422DB-SINGLE-WEB-2019-ENSLAVE": {"01-kelly_moran-love_birds_night_birds_devil-birds-8147c958.mp3": 10829161, "00-kelly_moran-love_birds_night_birds_devil-birds-(wap422db)-single-web-2019.jpg": 135937, "00 ...
创建时间: 2019-05-25 08:49:59 大小:10.46 MB 文件数量:4 热度:4 最近下载:2023-12-24 10:31:06
    {"Back.jpg": 57019, "Cover.jpg": 220750, "2. Rain.mp3": 11895948, "3. Harmony.mp3": 25135178, "5. Lullaby.mp3": 12067796, "4. Elk Song.mp3": 13400356, "7. Bird Song.mp3": 39451726, "1. Exuberance.mp3": 17291557, "6. Meditation.mp3": 44382106}
创建时间: 2019-05-25 20:28:39 大小:156.31 MB 文件数量:9 热度:4 最近下载:2023-12-24 12:19:03
    {"Luca_DAlberto-Exile-7K009D-WEB-2018-ENSLAVE": {"01-luca_dalberto-exile-5ebe6215.mp3": 10817930, "05-luca_dalberto-grace-93be8f6e.mp3": 9244831, "08-luca_dalberto-love_song-abc3ce95.mp3": 15617775, "02-luca_dalberto-like_we_were-dc169154.mp3": 10729039, " ...
创建时间: 2019-05-25 22:17:43 大小:945.84 MB 文件数量:95 热度:3 最近下载:2023-12-24 12:42:03